createdAt,value
2018-09-10T00:01:21.969Z,100.00
2018-09-10T00:03:51.143Z,100.00
2018-09-10T00:06:23.009Z,100.00
2018-09-10T00:08:53.087Z,100.00
2018-09-10T00:11:22.092Z,100.00
2018-09-10T00:13:52.476Z,100.00
2018-09-10T00:16:22.616Z,100.00
2018-09-10T00:18:52.754Z,100.00
2018-09-10T00:21:23.629Z,100.00
2018-09-10T00:23:53.908Z,100.00
2018-09-10T00:26:23.373Z,100.00
2018-09-10T00:28:54.097Z,100.00
2018-09-10T00:31:23.608Z,100.00
2018-09-10T00:33:53.775Z,100.00
2018-09-10T00:36:22.097Z,100.00
2018-09-10T00:38:53.302Z,100.00
2018-09-10T00:41:23.292Z,100.00
2018-09-10T00:43:52.671Z,100.00
2018-09-10T00:46:23.385Z,100.00
2018-09-10T00:48:53.491Z,100.00
2018-09-10T00:51:24.240Z,100.00
2018-09-10T00:53:54.140Z,100.00
2018-09-10T00:56:25.298Z,100.00
2018-09-10T00:58:54.788Z,100.00
2018-09-10T01:01:25.478Z,100.00
2018-09-10T01:03:55.165Z,100.00
2018-09-10T01:06:24.538Z,100.00
2018-09-10T01:08:54.345Z,100.00
2018-09-10T01:11:24.277Z,100.00
2018-09-10T01:13:54.068Z,100.00
2018-09-10T01:16:24.084Z,100.00
2018-09-10T01:18:54.662Z,100.00
2018-09-10T01:21:23.981Z,100.00
2018-09-10T01:23:52.528Z,100.00
2018-09-10T01:26:22.644Z,100.00
2018-09-10T01:28:52.702Z,100.00
2018-09-10T01:31:23.330Z,100.00
2018-09-10T01:33:56.844Z,100.00
2018-09-10T01:36:25.265Z,100.00
2018-09-10T01:38:54.618Z,100.00
2018-09-10T01:41:24.516Z,100.00
2018-09-10T01:43:54.665Z,100.00
2018-09-10T01:46:25.488Z,100.00
2018-09-10T01:48:56.235Z,100.00
2018-09-10T01:51:24.585Z,100.00
2018-09-10T01:53:54.116Z,100.00
2018-09-10T01:56:24.612Z,100.00
2018-09-10T01:58:55.424Z,100.00
2018-09-10T02:01:24.813Z,100.00
2018-09-10T02:03:55.628Z,100.00
2018-09-10T02:06:26.196Z,100.00
2018-09-10T02:08:54.577Z,100.00
2018-09-10T02:11:25.388Z,100.00
2018-09-10T02:13:54.903Z,100.00
2018-09-10T02:16:24.317Z,100.00
2018-09-10T02:18:53.791Z,100.00
2018-09-10T02:21:24.165Z,100.00
2018-09-10T02:23:53.581Z,100.00
2018-09-10T02:26:22.593Z,100.00
2018-09-10T02:28:54.189Z,100.00
2018-09-10T02:31:23.417Z,100.00
2018-09-10T02:33:52.528Z,100.00
2018-09-10T02:36:22.604Z,100.00
2018-09-10T02:38:52.613Z,100.00
2018-09-10T02:41:22.561Z,100.00
2018-09-10T02:43:52.429Z,100.00
2018-09-10T02:46:23.080Z,100.00
2018-09-10T02:48:52.556Z,100.00
2018-09-10T02:51:25.258Z,99.11
2018-09-10T02:53:53.828Z,100.00
2018-09-10T02:56:22.161Z,100.00
2018-09-10T02:58:52.990Z,100.00
2018-09-10T03:01:22.454Z,100.00
2018-09-10T03:03:52.146Z,100.00
2018-09-10T03:06:22.133Z,100.00
2018-09-10T03:08:53.473Z,100.00
2018-09-10T03:11:22.454Z,100.00
2018-09-10T03:13:52.656Z,99.17
2018-09-10T03:16:21.107Z,99.94
2018-09-10T03:18:51.134Z,99.67
2018-09-10T03:21:19.470Z,100.00
2018-09-10T03:23:49.722Z,100.00
2018-09-10T03:26:20.413Z,100.00
2018-09-10T03:28:49.976Z,99.74
2018-09-10T03:31:19.810Z,98.59
2018-09-10T03:33:49.592Z,98.66
2018-09-10T03:36:20.215Z,100.00
2018-09-10T03:38:49.921Z,99.67
2018-09-10T03:41:18.764Z,99.94
2018-09-10T03:43:47.242Z,100.00
2018-09-10T03:46:15.676Z,100.00
2018-09-10T03:48:44.018Z,100.00
2018-09-10T03:51:12.363Z,100.00
2018-09-10T03:53:40.698Z,100.00
2018-09-10T03:56:09.133Z,100.00
2018-09-10T03:58:37.497Z,100.00
2018-09-10T04:01:07.423Z,100.00
2018-09-10T04:03:36.753Z,100.00
2018-09-10T04:06:05.106Z,100.00
2018-09-10T04:08:33.771Z,100.00
2018-09-10T04:11:02.117Z,100.00
2018-09-10T04:13:31.457Z,100.00
2018-09-10T04:15:59.781Z,100.00
2018-09-10T04:18:28.161Z,100.00
2018-09-10T04:20:56.496Z,100.00
2018-09-10T04:23:24.846Z,100.00
2018-09-10T04:25:57.165Z,100.00
2018-09-10T04:28:26.436Z,100.00
2018-09-10T04:30:54.797Z,100.00
2018-09-10T04:33:24.214Z,100.00
2018-09-10T04:35:54.143Z,100.00
2018-09-10T04:38:24.371Z,100.00
2018-09-10T04:40:54.275Z,100.00
2018-09-10T04:43:29.413Z,100.00
2018-09-10T04:45:58.313Z,100.00
2018-09-10T04:48:27.531Z,100.00
2018-09-10T04:50:56.912Z,100.00
2018-09-10T04:53:26.568Z,100.00
2018-09-10T04:55:56.792Z,100.00
2018-09-10T04:58:26.584Z,100.00
2018-09-10T05:00:54.925Z,100.00
2018-09-10T05:03:24.272Z,100.00
2018-09-10T05:05:55.133Z,100.00
2018-09-10T05:08:24.465Z,100.00
2018-09-10T05:10:54.810Z,100.00
2018-09-10T05:13:23.747Z,100.00
2018-09-10T05:15:55.130Z,100.00
2018-09-10T05:18:24.492Z,100.00
2018-09-10T05:20:54.277Z,100.00
2018-09-10T05:23:25.481Z,100.00
2018-09-10T05:25:56.040Z,100.00
2018-09-10T05:28:25.518Z,99.76
2018-09-10T05:30:56.169Z,99.51
2018-09-10T05:33:25.436Z,98.85
2018-09-10T05:35:55.967Z,98.80
2018-09-10T05:38:25.338Z,98.73
2018-09-10T05:40:54.498Z,99.12
2018-09-10T05:43:23.503Z,95.67
2018-09-10T05:45:53.888Z,95.88
2018-09-10T05:48:23.503Z,95.62
2018-09-10T05:50:54.305Z,95.34
2018-09-10T05:53:24.651Z,95.80
2018-09-10T05:55:56.413Z,94.42
2018-09-10T05:58:25.645Z,93.61
2018-09-10T06:00:55.708Z,93.48
2018-09-10T06:03:26.356Z,94.43
2018-09-10T06:05:56.085Z,93.74
2018-09-10T06:08:25.469Z,91.12
2018-09-10T06:10:54.328Z,92.25
2018-09-10T06:13:24.009Z,92.81
2018-09-10T06:15:54.905Z,93.86
2018-09-10T06:18:24.273Z,93.81
2018-09-10T06:20:55.502Z,94.58
2018-09-10T06:23:24.830Z,92.81
2018-09-10T06:25:56.106Z,93.73
2018-09-10T06:28:24.430Z,94.29
2018-09-10T06:30:54.193Z,93.79
2018-09-10T06:33:22.928Z,93.32
2018-09-10T06:35:55.492Z,91.54
2018-09-10T06:38:24.968Z,91.48
2018-09-10T06:40:54.724Z,90.77
2018-09-10T06:43:24.941Z,89.88
2018-09-10T06:45:55.417Z,89.12
2018-09-10T06:48:24.651Z,88.10
2018-09-10T06:50:55.502Z,86.17
2018-09-10T06:53:24.890Z,85.49
2018-09-10T06:55:54.913Z,79.99
2018-09-10T06:58:23.717Z,79.97
2018-09-10T07:00:52.597Z,81.12
2018-09-10T07:03:22.165Z,77.63
2018-09-10T07:05:52.956Z,77.88
2018-09-10T07:08:24.333Z,78.34
2018-09-10T07:10:55.130Z,77.51
2018-09-10T07:13:24.960Z,78.36
2018-09-10T07:15:55.930Z,76.85
2018-09-10T07:18:25.299Z,75.87
2018-09-10T07:20:54.526Z,75.10
2018-09-10T07:26:02.296Z,74.46
2018-09-10T07:28:31.543Z,73.34
2018-09-10T07:30:59.904Z,73.80
2018-09-10T07:33:29.215Z,73.55
2018-09-10T07:35:58.436Z,73.51
2018-09-10T07:38:27.689Z,72.45
2018-09-10T07:40:56.276Z,72.29
2018-09-10T07:43:25.527Z,70.17
2018-09-10T07:45:56.409Z,70.01
2018-09-10T07:48:24.933Z,68.55
2018-09-10T07:50:54.628Z,69.12
2018-09-10T07:53:23.617Z,68.91
2018-09-10T07:55:53.627Z,67.69
2018-09-10T07:58:22.474Z,68.18
2018-09-10T08:00:52.605Z,67.34
2018-09-10T08:03:22.505Z,66.59
2018-09-10T08:05:54.119Z,63.93
2018-09-10T08:08:23.385Z,62.56
2018-09-10T08:10:52.216Z,61.76
2018-09-10T08:13:20.592Z,61.79
2018-09-10T08:15:49.807Z,62.18
2018-09-10T08:18:18.866Z,60.63
2018-09-10T08:20:47.205Z,59.78
2018-09-10T08:23:16.404Z,57.68
2018-09-10T08:25:44.896Z,58.27
2018-09-10T08:28:13.328Z,56.94
2018-09-10T08:30:41.837Z,56.24
2018-09-10T08:33:11.252Z,56.26
2018-09-10T08:35:40.593Z,55.65
2018-09-10T08:38:08.941Z,54.90
2018-09-10T08:40:37.293Z,53.82
2018-09-10T08:43:06.123Z,53.16
2018-09-10T08:45:34.492Z,52.05
2018-09-10T08:48:02.846Z,51.77
2018-09-10T08:50:31.254Z,52.05
2018-09-10T08:52:59.753Z,51.47
2018-09-10T08:55:28.161Z,51.18
2018-09-10T08:57:57.508Z,50.18
2018-09-10T09:00:27.510Z,49.42
2018-09-10T09:02:55.886Z,48.01
2018-09-10T09:05:24.209Z,47.82
2018-09-10T09:07:52.941Z,46.31
2018-09-10T09:10:22.502Z,48.38
2018-09-10T09:12:53.517Z,48.39
2018-09-10T09:15:23.617Z,45.77
2018-09-10T09:17:52.619Z,44.59
2018-09-10T09:20:22.532Z,43.80
2018-09-10T09:22:53.574Z,43.03
2018-09-10T09:25:22.687Z,42.01
2018-09-10T09:27:53.372Z,39.88
2018-09-10T09:30:23.575Z,40.18
2018-09-10T09:32:52.542Z,37.73
2018-09-10T09:35:27.200Z,39.31
2018-09-10T09:38:00.941Z,39.17
2018-09-10T09:40:34.661Z,39.17
2018-09-10T09:43:08.665Z,41.16
2018-09-10T09:45:42.515Z,41.60
2018-09-10T09:48:10.974Z,38.20
2018-09-10T09:50:40.619Z,37.72
2018-09-10T09:53:08.988Z,40.44
2018-09-10T09:55:38.212Z,38.67
2018-09-10T09:58:06.653Z,39.09
2018-09-10T10:00:41.406Z,38.74
2018-09-10T10:04:14.902Z,39.36
2018-09-10T10:06:43.255Z,40.14
2018-09-10T10:09:13.064Z,39.18
2018-09-10T10:11:41.840Z,39.51
2018-09-10T10:14:10.933Z,39.06
2018-09-10T10:16:39.661Z,39.50
2018-09-10T10:19:09.145Z,39.07
2018-09-10T10:21:37.521Z,41.13
2018-09-10T10:24:05.929Z,37.22
2018-09-10T10:26:34.282Z,39.48
2018-09-10T10:29:02.807Z,40.35
2018-09-10T10:31:31.213Z,37.51
2018-09-10T10:34:00.424Z,37.97
2018-09-10T10:36:28.969Z,37.65
2018-09-10T10:38:57.354Z,35.09
2018-09-10T10:41:25.685Z,35.22
2018-09-10T10:43:54.720Z,38.07
2018-09-10T10:46:25.324Z,36.91
2018-09-10T10:48:54.757Z,38.41
2018-09-10T10:51:24.172Z,35.64
2018-09-10T10:53:54.277Z,37.21
2018-09-10T10:56:24.101Z,35.17
2018-09-10T10:58:53.269Z,35.21
2018-09-10T11:01:22.208Z,35.82
2018-09-10T11:03:52.907Z,36.18
2018-09-10T11:06:24.075Z,34.77
2018-09-10T11:08:53.261Z,36.52
2018-09-10T11:11:22.862Z,38.97
2018-09-10T11:13:52.287Z,36.91
2018-09-10T11:16:23.033Z,37.44
2018-09-10T11:18:53.805Z,36.81
2018-09-10T11:21:22.169Z,36.98
2018-09-10T11:23:52.177Z,37.78
2018-09-10T11:26:22.258Z,36.32
2018-09-10T11:28:52.097Z,37.37
2018-09-10T11:31:22.746Z,36.80
2018-09-10T11:33:52.226Z,36.27
2018-09-10T11:36:21.632Z,37.79
2018-09-10T11:38:50.217Z,37.92
2018-09-10T11:41:18.993Z,36.93
2018-09-10T11:43:47.324Z,36.55
2018-09-10T11:46:15.676Z,37.25
2018-09-10T11:48:44.006Z,37.34
2018-09-10T11:51:12.365Z,38.49
2018-09-10T11:53:41.589Z,39.07
2018-09-10T11:56:10.247Z,37.54
2018-09-10T11:58:38.565Z,37.62
2018-09-10T12:01:06.914Z,35.95
2018-09-10T12:03:35.253Z,36.41
2018-09-10T12:06:03.630Z,34.91
2018-09-10T12:08:33.009Z,34.76
2018-09-10T12:11:01.395Z,33.34
2018-09-10T12:13:30.012Z,35.55
2018-09-10T12:15:58.729Z,36.36
2018-09-10T12:18:27.977Z,35.17
2018-09-10T12:20:56.301Z,34.38
2018-09-10T12:23:24.620Z,34.61
2018-09-10T12:25:54.393Z,34.85
2018-09-10T12:28:23.707Z,35.17
2018-09-10T12:30:52.841Z,34.49
2018-09-10T12:33:22.801Z,33.70
2018-09-10T12:35:52.961Z,33.75
2018-09-10T12:38:23.052Z,31.99
2018-09-10T12:40:52.632Z,33.46
2018-09-10T12:43:22.500Z,33.57
2018-09-10T12:45:54.189Z,33.44
2018-09-10T12:48:23.865Z,33.92
2018-09-10T12:50:53.494Z,34.27
2018-09-10T12:53:24.047Z,33.92
2018-09-10T12:55:54.056Z,34.41
2018-09-10T12:58:23.269Z,33.91
2018-09-10T13:00:53.038Z,35.16
2018-09-10T13:03:22.515Z,35.60
2018-09-10T13:05:52.880Z,35.08
2018-09-10T13:08:22.153Z,32.97
2018-09-10T13:10:51.178Z,33.52
2018-09-10T13:13:20.081Z,33.93
2018-09-10T13:15:50.149Z,34.84
2018-09-10T13:18:19.102Z,35.36
2018-09-10T13:20:47.446Z,35.29
2018-09-10T13:23:16.749Z,36.25
2018-09-10T13:25:46.034Z,34.61
2018-09-10T13:28:14.369Z,35.40
2018-09-10T13:30:42.713Z,34.62
2018-09-10T13:33:11.086Z,34.95
2018-09-10T13:35:39.426Z,34.02
2018-09-10T13:38:08.825Z,35.51
2018-09-10T13:40:38.158Z,34.65
2018-09-10T13:43:06.788Z,36.12
2018-09-10T13:45:36.088Z,35.14
2018-09-10T13:48:05.657Z,34.40
2018-09-10T13:50:34.137Z,33.15
2018-09-10T13:53:02.484Z,33.76
2018-09-10T13:55:31.823Z,33.29
2018-09-10T13:58:00.169Z,35.32
2018-09-10T14:00:29.285Z,35.26
2018-09-10T14:02:57.657Z,34.23
2018-09-10T14:05:27.010Z,34.26
2018-09-10T14:07:55.476Z,35.50
2018-09-10T14:10:24.549Z,36.56
2018-09-10T14:12:53.457Z,43.01
2018-09-10T14:15:22.717Z,45.95
2018-09-10T14:17:52.699Z,40.42
2018-09-10T14:20:22.148Z,48.69
2018-09-10T14:22:52.373Z,51.67
2018-09-10T14:25:22.747Z,45.13
2018-09-10T14:27:52.548Z,47.40
2018-09-10T14:30:22.512Z,47.31
2018-09-10T14:32:51.520Z,56.90
2018-09-10T14:35:20.637Z,60.03
2018-09-10T14:37:49.906Z,64.83
2018-09-10T14:40:18.347Z,60.41
2018-09-10T14:42:49.110Z,65.77
2018-09-10T14:45:17.681Z,70.71
2018-09-10T14:47:46.014Z,63.85
2018-09-10T14:50:14.394Z,65.43
2018-09-10T14:52:42.724Z,68.14
2018-09-10T14:55:11.056Z,65.08
2018-09-10T14:57:40.273Z,61.43
2018-09-10T15:00:11.510Z,65.06
2018-09-10T15:02:40.061Z,62.65
2018-09-10T15:05:09.571Z,62.24
2018-09-10T15:07:37.931Z,62.07
2018-09-10T15:10:06.254Z,62.47
2018-09-10T15:12:34.616Z,63.84
2018-09-10T15:15:03.081Z,64.25
2018-09-10T15:17:31.555Z,60.77
2018-09-10T15:19:59.879Z,66.12
2018-09-10T15:22:29.166Z,62.78
2018-09-10T15:24:57.624Z,67.82
2018-09-10T15:27:28.674Z,69.36
2018-09-10T15:29:57.313Z,71.04
2018-09-10T15:32:25.704Z,65.73
2018-09-10T15:34:54.877Z,65.13
2018-09-10T15:37:25.504Z,68.06
2018-09-10T15:39:55.169Z,68.12
2018-09-10T15:42:24.161Z,71.47
2018-09-10T15:44:53.182Z,70.85
2018-09-10T15:47:22.369Z,70.30
2018-09-10T15:49:53.319Z,72.64
2018-09-10T15:52:23.103Z,73.89
2018-09-10T15:54:52.505Z,72.22
2018-09-10T15:57:23.566Z,69.74
2018-09-10T15:59:52.138Z,69.44
2018-09-10T16:02:22.672Z,71.28
2018-09-10T16:04:52.741Z,70.89
2018-09-10T16:07:22.123Z,68.71
2018-09-10T16:09:52.516Z,71.13
2018-09-10T16:12:21.008Z,71.40
2018-09-10T16:14:50.333Z,72.24
2018-09-10T16:17:20.290Z,74.78
2018-09-10T16:19:48.699Z,72.24
2018-09-10T16:22:17.929Z,75.35
2018-09-10T16:24:46.437Z,75.22
2018-09-10T16:27:15.739Z,82.61
2018-09-10T16:29:44.249Z,84.52
2018-09-10T16:32:13.457Z,82.52
2018-09-10T16:34:41.853Z,81.59
2018-09-10T16:37:10.968Z,85.67
2018-09-10T16:39:40.258Z,82.04
2018-09-10T16:42:08.663Z,78.75
2018-09-10T16:44:37.093Z,77.64
2018-09-10T16:47:06.366Z,79.39
2018-09-10T16:49:34.796Z,78.30
2018-09-10T16:52:04.180Z,77.01
2018-09-10T16:54:33.454Z,76.56
2018-09-10T16:57:02.030Z,77.21
2018-09-10T16:59:30.529Z,76.58
2018-09-10T17:01:58.976Z,76.28
2018-09-10T17:04:27.301Z,76.48
2018-09-10T17:06:55.666Z,75.97
2018-09-10T17:09:24.955Z,80.88
2018-09-10T17:11:54.308Z,79.39
2018-09-10T17:14:24.593Z,77.76
2018-09-10T17:16:53.219Z,76.82
2018-09-10T17:19:22.261Z,75.32
2018-09-10T17:21:52.258Z,74.47
2018-09-10T17:24:21.849Z,73.89
2018-09-10T17:26:53.457Z,75.06
2018-09-10T17:29:22.496Z,75.77
2018-09-10T17:31:53.112Z,75.49
2018-09-10T17:34:22.353Z,75.75
2018-09-10T17:36:52.024Z,75.73
2018-09-10T17:39:21.262Z,74.89
2018-09-10T17:41:50.369Z,74.37
2018-09-10T17:44:19.294Z,75.70
2018-09-10T17:46:49.298Z,75.27
2018-09-10T17:49:18.816Z,74.95
2018-09-10T17:51:47.449Z,76.29
2018-09-10T17:54:16.772Z,75.90
2018-09-10T17:56:45.197Z,76.37
2018-09-10T17:59:14.511Z,71.09
2018-09-10T18:01:43.740Z,71.62
2018-09-10T18:04:12.107Z,74.05
2018-09-10T18:06:40.422Z,71.38
2018-09-10T18:09:10.441Z,72.03
2018-09-10T18:11:38.922Z,70.71
2018-09-10T18:14:07.460Z,70.84
2018-09-10T18:16:36.657Z,71.80
2018-09-10T18:19:04.989Z,70.88
2018-09-10T18:21:35.065Z,70.92
2018-09-10T18:24:04.150Z,70.19
2018-09-10T18:26:32.475Z,70.53
2018-09-10T18:29:01.289Z,71.10
2018-09-10T18:31:29.661Z,70.15
2018-09-10T18:33:58.031Z,71.60
2018-09-10T18:36:26.499Z,72.50
2018-09-10T18:38:55.005Z,73.62
2018-09-10T18:41:25.078Z,70.48
2018-09-10T18:43:54.459Z,69.23
2018-09-10T18:46:23.843Z,70.00
2018-09-10T18:48:52.245Z,70.31
2018-09-10T18:51:21.616Z,69.39
2018-09-10T18:53:52.206Z,70.12
2018-09-10T18:56:22.713Z,70.37
2018-09-10T18:58:53.109Z,69.37
2018-09-10T19:01:23.136Z,71.37
2018-09-10T19:03:53.309Z,70.77
2018-09-10T19:06:23.050Z,72.81
2018-09-10T19:08:52.911Z,72.78
2018-09-10T19:11:23.421Z,71.14
2018-09-10T19:13:53.621Z,70.30
2018-09-10T19:16:22.770Z,71.21
2018-09-10T19:18:52.782Z,70.92
2018-09-10T19:21:22.262Z,71.52
2018-09-10T19:23:52.589Z,71.05
2018-09-10T19:26:22.835Z,70.98
2018-09-10T19:28:52.985Z,71.93
2018-09-10T19:31:23.711Z,72.09
2018-09-10T19:33:54.597Z,72.11
2018-09-10T19:36:23.842Z,71.93
2018-09-10T19:38:54.594Z,71.23
2018-09-10T19:41:24.088Z,72.36
2018-09-10T19:43:54.392Z,73.25
2018-09-10T19:46:23.746Z,73.08
2018-09-10T19:48:52.893Z,71.66
2018-09-10T19:51:23.022Z,72.92
2018-09-10T19:53:53.957Z,72.29
2018-09-10T19:56:23.200Z,72.81
2018-09-10T19:58:53.359Z,72.49
2018-09-10T20:01:23.957Z,72.81
2018-09-10T20:03:53.121Z,72.95
2018-09-10T20:06:23.309Z,72.23
2018-09-10T20:08:53.590Z,73.36
2018-09-10T20:11:22.770Z,73.09
2018-09-10T20:13:53.188Z,72.99
2018-09-10T20:16:24.175Z,72.86
2018-09-10T20:18:53.942Z,74.04
2018-09-10T20:21:23.942Z,73.57
2018-09-10T20:23:53.713Z,73.43
2018-09-10T20:26:22.431Z,72.97
2018-09-10T20:28:52.739Z,74.42
2018-09-10T20:31:21.063Z,74.28
2018-09-10T20:33:56.355Z,74.77
2018-09-10T20:36:24.686Z,74.65
2018-09-10T20:38:54.062Z,74.10
2018-09-10T20:41:24.129Z,74.48
2018-09-10T20:43:53.212Z,74.03
2018-09-10T20:46:23.089Z,74.18
2018-09-10T20:48:53.501Z,74.79
2018-09-10T20:51:23.797Z,75.40
2018-09-10T20:53:52.151Z,74.29
2018-09-10T20:56:21.198Z,73.66
2018-09-10T20:58:52.375Z,72.97
2018-09-10T21:01:22.551Z,73.84
2018-09-10T21:03:54.069Z,74.28
2018-09-10T21:06:25.020Z,74.90
2018-09-10T21:08:55.452Z,74.79
2018-09-10T21:11:24.926Z,75.08
2018-09-10T21:13:54.881Z,75.75
2018-09-10T21:16:25.325Z,75.95
2018-09-10T21:18:54.857Z,75.59
2018-09-10T21:21:23.954Z,76.26
2018-09-10T21:23:53.320Z,75.05
2018-09-10T21:26:22.985Z,75.52
2018-09-10T21:28:53.512Z,76.04
2018-09-10T21:31:24.939Z,75.64
2018-09-10T21:33:54.234Z,75.74
2018-09-10T21:36:22.855Z,75.78
2018-09-10T21:38:52.638Z,76.84
2018-09-10T21:41:24.308Z,76.89
2018-09-10T21:43:53.670Z,75.48
2018-09-10T21:46:22.557Z,77.55
2018-09-10T21:48:52.783Z,75.50
2018-09-10T21:51:22.721Z,74.73
2018-09-10T21:53:53.193Z,75.53
2018-09-10T21:56:23.226Z,75.72
2018-09-10T21:58:54.091Z,77.49
2018-09-10T22:01:23.208Z,74.46
2018-09-10T22:03:53.200Z,74.83
2018-09-10T22:06:23.569Z,74.21
2018-09-10T22:08:54.436Z,74.14
2018-09-10T22:11:23.889Z,73.42
2018-09-10T22:13:54.570Z,73.66
2018-09-10T22:16:24.045Z,73.05
2018-09-10T22:18:53.451Z,73.63
2018-09-10T22:21:24.341Z,72.03
2018-09-10T22:23:53.388Z,72.88
2018-09-10T22:26:22.532Z,73.17
2018-09-10T22:28:53.150Z,72.43
2018-09-10T22:31:22.616Z,73.52
2018-09-10T22:33:52.764Z,73.52
2018-09-10T22:36:23.392Z,72.64
2018-09-10T22:38:57.856Z,73.28
2018-09-10T22:41:26.352Z,74.19
2018-09-10T22:43:54.706Z,75.19
2018-09-10T22:46:24.377Z,73.99
2018-09-10T22:48:55.814Z,73.42
2018-09-10T22:51:24.205Z,74.25
2018-09-10T22:53:53.233Z,72.80
2018-09-10T22:56:23.706Z,73.01
2018-09-10T22:58:53.735Z,72.81
2018-09-10T23:01:23.473Z,72.36
2018-09-10T23:03:53.631Z,72.65
2018-09-10T23:06:24.059Z,72.62
2018-09-10T23:08:53.596Z,72.83
2018-09-10T23:11:24.368Z,72.89
2018-09-10T23:13:53.553Z,73.53
2018-09-10T23:16:24.571Z,73.91
2018-09-10T23:18:54.327Z,73.81
2018-09-10T23:21:24.676Z,73.23
2018-09-10T23:23:55.396Z,73.09
2018-09-10T23:26:24.661Z,73.67
2018-09-10T23:28:54.132Z,73.03
2018-09-10T23:31:23.597Z,73.54
2018-09-10T23:33:53.083Z,73.53
2018-09-10T23:36:23.373Z,74.08
2018-09-10T23:38:53.312Z,74.84
2018-09-10T23:41:23.760Z,74.65
2018-09-10T23:43:52.746Z,74.80
2018-09-10T23:46:22.635Z,75.47
2018-09-10T23:48:54.456Z,77.39
2018-09-10T23:51:23.384Z,77.20
2018-09-10T23:53:53.606Z,76.81
2018-09-10T23:56:24.300Z,78.09
2018-09-10T23:58:54.929Z,76.58
